createdAt,value
2022-11-29T00:02:25.157Z,5.23
2022-11-29T00:06:17.913Z,5.33
2022-11-29T00:09:59.748Z,6.03
2022-11-29T00:13:41.566Z,4.97
2022-11-29T00:17:23.429Z,5.17
2022-11-29T00:21:07.000Z,5.30
2022-11-29T00:24:48.728Z,4.80
2022-11-29T00:28:30.509Z,5.20
2022-11-29T00:32:12.236Z,4.43
2022-11-29T00:35:54.011Z,4.50
2022-11-29T00:39:35.847Z,4.20
2022-11-29T00:43:17.636Z,4.07
2022-11-29T00:46:59.404Z,4.87
2022-11-29T00:50:41.346Z,4.00
2022-11-29T00:54:23.391Z,10.23
2022-11-29T00:58:05.189Z,6.80
2022-11-29T01:01:47.008Z,6.93
2022-11-29T01:05:30.540Z,5.87
2022-11-29T01:09:12.297Z,6.13
2022-11-29T01:12:54.426Z,6.50
2022-11-29T01:16:36.395Z,6.27
2022-11-29T01:20:18.530Z,6.30
2022-11-29T01:24:01.634Z,6.30
2022-11-29T01:27:43.320Z,5.43
2022-11-29T01:31:28.637Z,5.80
2022-11-29T01:35:10.599Z,5.87
2022-11-29T01:38:52.929Z,5.50
2022-11-29T01:42:35.120Z,5.77
2022-11-29T01:46:18.062Z,6.73
2022-11-29T01:50:00.088Z,6.27
2022-11-29T01:53:41.924Z,6.00
2022-11-29T01:57:24.276Z,5.60
2022-11-29T02:01:06.368Z,4.67
2022-11-29T02:04:49.593Z,10.20
2022-11-29T02:08:38.979Z,8.13
2022-11-29T02:12:38.296Z,7.83
2022-11-29T02:16:32.912Z,6.37
2022-11-29T02:20:48.716Z,9.03
2022-11-29T02:24:45.450Z,13.47
2022-11-29T02:29:00.436Z,15.63
2022-11-29T02:33:26.365Z,10.80
2022-11-29T02:37:29.996Z,10.33
2022-11-29T02:41:59.349Z,8.67
2022-11-29T02:45:58.585Z,14.37
2022-11-29T02:50:13.339Z,12.90
2022-11-29T02:54:18.868Z,9.37
2022-11-29T02:58:28.548Z,8.20
2022-11-29T03:02:38.663Z,7.87
2022-11-29T03:06:51.935Z,7.10
2022-11-29T03:10:45.409Z,6.57
2022-11-29T03:14:34.863Z,6.63
2022-11-29T03:18:42.240Z,8.33
2022-11-29T03:22:42.609Z,9.27
2022-11-29T03:26:38.228Z,8.97
2022-11-29T03:30:21.682Z,15.00
2022-11-29T03:34:26.386Z,15.73
2022-11-29T03:38:27.046Z,12.13
2022-11-29T03:42:14.151Z,11.40
2022-11-29T03:46:21.939Z,11.10
2022-11-29T03:50:08.414Z,13.90
2022-11-29T03:54:02.880Z,12.97
2022-11-29T03:58:17.668Z,7.83
2022-11-29T04:01:59.467Z,10.67
2022-11-29T04:06:13.589Z,14.37
2022-11-29T04:10:06.972Z,9.60
2022-11-29T04:14:23.990Z,10.57
2022-11-29T04:18:25.653Z,12.50
2022-11-29T04:22:23.682Z,15.10
2022-11-29T04:26:17.473Z,15.47
2022-11-29T04:30:18.711Z,14.30
2022-11-29T04:38:27.544Z,8.73
2022-11-29T04:42:09.258Z,10.03
2022-11-29T04:46:09.979Z,12.13
2022-11-29T04:50:04.756Z,12.30
2022-11-29T04:54:07.792Z,8.83
2022-11-29T04:58:10.980Z,7.43
2022-11-29T05:02:14.087Z,18.83
2022-11-29T05:06:19.436Z,10.30
2022-11-29T05:10:22.643Z,16.80
2022-11-29T05:14:58.014Z,11.40
2022-11-29T05:19:14.829Z,11.57
2022-11-29T05:23:29.956Z,9.13
2022-11-29T05:27:43.590Z,6.50
2022-11-29T05:32:02.091Z,6.63
2022-11-29T05:35:54.933Z,4.73
2022-11-29T05:39:55.298Z,4.17
2022-11-29T05:44:01.611Z,3.00
2022-11-29T05:47:53.158Z,2.60
2022-11-29T05:51:55.226Z,2.43
2022-11-29T05:55:58.040Z,2.33
2022-11-29T05:59:43.715Z,2.70
2022-11-29T06:03:37.150Z,2.67
2022-11-29T06:07:41.491Z,3.20
2022-11-29T06:11:53.048Z,3.93
2022-11-29T06:15:59.483Z,2.57
2022-11-29T06:19:58.071Z,3.20
2022-11-29T06:24:09.087Z,12.47
2022-11-29T06:27:57.560Z,7.30
2022-11-29T06:31:46.535Z,10.33
2022-11-29T06:35:46.742Z,10.00
2022-11-29T06:39:28.873Z,6.27
2022-11-29T06:43:13.036Z,6.47
2022-11-29T06:47:10.703Z,5.50
2022-11-29T06:51:10.892Z,6.00
2022-11-29T06:54:58.604Z,4.27
2022-11-29T06:59:11.184Z,5.00
2022-11-29T07:02:55.790Z,3.90
2022-11-29T07:06:38.988Z,3.63
2022-11-29T07:10:21.561Z,3.43
2022-11-29T07:14:03.533Z,4.20
2022-11-29T07:18:13.337Z,4.97
2022-11-29T07:22:30.275Z,5.87
2022-11-29T07:26:39.276Z,4.40
2022-11-29T07:30:46.043Z,3.70
2022-11-29T07:34:58.177Z,4.00
2022-11-29T07:38:59.332Z,4.10
2022-11-29T07:42:59.692Z,3.85
2022-11-29T07:46:41.645Z,4.63
2022-11-29T07:50:24.388Z,4.50
2022-11-29T07:54:06.355Z,4.30
2022-11-29T07:57:48.738Z,4.80
2022-11-29T08:01:31.567Z,5.30
2022-11-29T08:05:13.448Z,4.83
2022-11-29T08:08:57.799Z,7.83
2022-11-29T08:12:48.025Z,6.60
2022-11-29T08:16:30.267Z,8.80
2022-11-29T08:20:13.528Z,8.07
2022-11-29T08:23:55.513Z,9.43
2022-11-29T08:27:37.995Z,8.10
2022-11-29T08:31:20.450Z,5.40
2022-11-29T08:35:02.244Z,6.73
2022-11-29T08:38:44.726Z,5.17
2022-11-29T08:42:26.555Z,5.50
2022-11-29T08:46:11.389Z,4.43
2022-11-29T08:50:02.941Z,4.23
2022-11-29T08:53:46.343Z,3.80
2022-11-29T08:57:43.422Z,3.40
2022-11-29T09:01:25.192Z,2.47
2022-11-29T09:05:08.406Z,2.40
2022-11-29T09:08:50.179Z,3.10
2022-11-29T09:12:32.855Z,3.47
2022-11-29T09:16:19.847Z,3.37
2022-11-29T09:20:01.861Z,3.20
2022-11-29T09:23:44.542Z,4.90
2022-11-29T09:27:26.328Z,3.80
2022-11-29T09:31:12.444Z,4.30
2022-11-29T09:34:54.155Z,3.93
2022-11-29T09:38:36.760Z,3.13
2022-11-29T09:42:33.255Z,3.00
2022-11-29T09:46:38.451Z,2.87
2022-11-29T09:50:46.546Z,3.83
2022-11-29T09:54:28.230Z,3.13
2022-11-29T09:58:15.495Z,4.33
2022-11-29T10:02:04.289Z,3.83
2022-11-29T10:05:50.820Z,4.30
2022-11-29T10:09:41.016Z,5.50
2022-11-29T10:13:28.575Z,5.10
2022-11-29T10:17:19.161Z,5.07
2022-11-29T10:21:10.058Z,7.25
2022-11-29T10:24:58.459Z,6.40
2022-11-29T10:28:48.606Z,6.57
2022-11-29T10:32:32.357Z,6.63
2022-11-29T10:36:32.907Z,5.73
2022-11-29T10:40:19.153Z,5.07
2022-11-29T10:44:00.970Z,5.30
2022-11-29T10:47:45.679Z,4.30
2022-11-29T10:51:28.243Z,6.63
2022-11-29T10:55:14.704Z,6.53
2022-11-29T10:59:03.297Z,5.97
2022-11-29T11:02:45.124Z,6.80
2022-11-29T11:06:41.408Z,6.10
2022-11-29T11:10:28.863Z,4.83
2022-11-29T11:14:38.717Z,4.83
2022-11-29T11:18:25.479Z,4.77
2022-11-29T11:22:07.280Z,5.20
2022-11-29T11:25:55.277Z,4.90
2022-11-29T11:29:42.201Z,4.60
2022-11-29T11:33:46.427Z,5.40
2022-11-29T11:37:35.854Z,5.00
2022-11-29T11:41:23.284Z,5.30
2022-11-29T11:45:11.183Z,4.33
2022-11-29T11:48:54.045Z,4.40
2022-11-29T11:52:54.743Z,4.17
2022-11-29T11:56:36.719Z,4.65
2022-11-29T12:01:03.411Z,4.43
2022-11-29T12:04:46.724Z,4.43
2022-11-29T12:08:29.923Z,4.50
2022-11-29T12:12:31.493Z,4.23
2022-11-29T12:16:29.983Z,5.97
2022-11-29T12:20:23.842Z,7.00
2022-11-29T12:24:28.640Z,7.97
2022-11-29T12:28:20.340Z,8.23
2022-11-29T12:32:12.347Z,8.43
2022-11-29T12:36:19.127Z,7.27
2022-11-29T12:40:11.184Z,5.63
2022-11-29T12:44:15.691Z,5.53
2022-11-29T12:48:10.176Z,4.77
2022-11-29T12:52:16.478Z,5.90
2022-11-29T12:56:22.128Z,4.47
2022-11-29T13:00:07.500Z,4.87
2022-11-29T13:04:29.643Z,4.50
2022-11-29T13:08:42.163Z,5.80
2022-11-29T13:12:47.709Z,5.27
2022-11-29T13:16:51.493Z,6.60
2022-11-29T13:20:48.351Z,5.00
2022-11-29T13:24:42.923Z,5.00
2022-11-29T13:28:33.838Z,5.30
2022-11-29T13:32:40.011Z,4.40
2022-11-29T13:36:52.466Z,5.43
2022-11-29T13:40:38.032Z,5.53
2022-11-29T13:44:51.022Z,5.70
2022-11-29T13:48:37.595Z,4.60
2022-11-29T13:52:37.619Z,5.97
2022-11-29T13:56:48.540Z,4.43
2022-11-29T14:00:32.863Z,6.32
2022-11-29T14:04:36.116Z,6.90
2022-11-29T14:08:25.691Z,5.70
2022-11-29T14:12:35.955Z,6.57
2022-11-29T14:16:39.138Z,5.13
2022-11-29T14:20:24.790Z,5.00
2022-11-29T14:24:35.367Z,5.37
2022-11-29T14:28:17.140Z,5.63
2022-11-29T14:31:59.724Z,5.83
2022-11-29T14:35:49.557Z,7.33
2022-11-29T14:39:42.779Z,8.13
2022-11-29T14:43:37.789Z,8.63
2022-11-29T14:47:34.398Z,8.50
2022-11-29T14:51:19.285Z,9.03
2022-11-29T14:55:35.523Z,7.43
2022-11-29T14:59:42.732Z,10.57
2022-11-29T15:03:37.503Z,13.20
2022-11-29T15:07:29.323Z,8.60
2022-11-29T15:11:43.157Z,7.50
2022-11-29T15:15:40.664Z,9.93
2022-11-29T15:19:52.438Z,8.57
2022-11-29T15:23:43.865Z,7.03
2022-11-29T15:27:26.124Z,7.57
2022-11-29T15:31:10.485Z,7.87
2022-11-29T15:34:55.029Z,8.50
2022-11-29T15:38:49.143Z,8.83
2022-11-29T15:42:42.889Z,8.43
2022-11-29T15:46:27.187Z,7.63
2022-11-29T15:50:25.623Z,8.47
2022-11-29T15:54:15.780Z,8.23
2022-11-29T15:58:03.894Z,7.23
2022-11-29T16:01:53.547Z,9.60
2022-11-29T16:05:37.605Z,13.43
2022-11-29T16:09:25.027Z,9.13
2022-11-29T16:13:28.250Z,7.73
2022-11-29T16:17:10.132Z,9.13
2022-11-29T16:21:04.123Z,9.00
2022-11-29T16:25:01.060Z,6.20
2022-11-29T16:28:46.115Z,9.30
2022-11-29T16:32:31.670Z,8.03
2022-11-29T16:36:19.144Z,8.10
2022-11-29T16:40:01.957Z,9.50
2022-11-29T16:43:49.470Z,7.23
2022-11-29T16:47:48.150Z,6.80
2022-11-29T16:51:48.200Z,6.47
2022-11-29T16:55:30.090Z,7.37
2022-11-29T16:59:25.463Z,8.47
2022-11-29T17:03:09.861Z,6.97
2022-11-29T17:06:56.113Z,9.47
2022-11-29T17:10:37.814Z,8.97
2022-11-29T17:14:26.988Z,8.13
2022-11-29T17:18:08.660Z,17.73
2022-11-29T17:21:53.568Z,15.80
2022-11-29T17:25:35.337Z,15.13
2022-11-29T17:29:18.060Z,14.30
2022-11-29T17:32:59.763Z,14.33
2022-11-29T17:36:41.888Z,11.90
2022-11-29T17:40:25.305Z,14.07
2022-11-29T17:44:07.532Z,12.50
2022-11-29T17:47:52.838Z,12.23
2022-11-29T17:51:54.022Z,8.17
2022-11-29T17:55:37.588Z,8.43
2022-11-29T17:59:19.412Z,7.73
2022-11-29T18:03:04.507Z,7.57
2022-11-29T18:06:52.160Z,9.10
2022-11-29T18:10:34.177Z,8.00
2022-11-29T18:14:28.390Z,10.30
2022-11-29T18:18:10.765Z,8.97
2022-11-29T18:21:52.541Z,8.87
2022-11-29T18:25:39.034Z,8.23
2022-11-29T18:29:23.260Z,15.70
2022-11-29T18:33:05.410Z,8.87
2022-11-29T18:36:51.555Z,8.90
2022-11-29T18:40:36.709Z,9.73
2022-11-29T18:44:23.061Z,8.87
2022-11-29T18:48:05.575Z,7.27
2022-11-29T18:51:48.640Z,8.03
2022-11-29T18:55:30.393Z,9.33
2022-11-29T18:59:17.294Z,9.47
2022-11-29T19:03:01.918Z,7.47
2022-11-29T19:06:44.169Z,6.90
2022-11-29T19:10:25.900Z,8.60
2022-11-29T19:14:13.410Z,8.70
2022-11-29T19:17:55.204Z,8.30
2022-11-29T19:21:40.304Z,16.57
2022-11-29T19:25:22.141Z,8.97
2022-11-29T19:29:03.861Z,8.30
2022-11-29T19:32:45.534Z,12.90
2022-11-29T19:36:29.668Z,9.00
2022-11-29T19:40:12.269Z,8.13
2022-11-29T19:43:58.774Z,7.60
2022-11-29T19:47:40.524Z,7.80
2022-11-29T19:51:23.509Z,7.30
2022-11-29T19:55:07.584Z,8.03
2022-11-29T19:58:49.844Z,9.83
2022-11-29T20:02:32.219Z,10.20
2022-11-29T20:06:15.505Z,8.90
2022-11-29T20:09:57.250Z,10.20
2022-11-29T20:13:43.561Z,9.97
2022-11-29T20:17:25.802Z,10.80
2022-11-29T20:21:10.814Z,9.43
2022-11-29T20:24:54.345Z,9.63
2022-11-29T20:28:36.305Z,9.80
2022-11-29T20:32:18.543Z,8.83
2022-11-29T20:36:16.859Z,8.33
2022-11-29T20:40:08.125Z,9.17
2022-11-29T20:43:56.985Z,9.83
2022-11-29T20:47:50.993Z,7.73
2022-11-29T20:51:51.284Z,13.43
2022-11-29T20:55:33.347Z,9.73
2022-11-29T20:59:15.071Z,9.30
2022-11-29T21:02:56.874Z,8.77
2022-11-29T21:06:39.111Z,8.73
2022-11-29T21:10:21.945Z,10.43
2022-11-29T21:14:04.507Z,8.40
2022-11-29T21:17:46.555Z,8.60
2022-11-29T21:21:49.261Z,8.90
2022-11-29T21:25:48.410Z,8.07
2022-11-29T21:29:30.491Z,7.73
2022-11-29T21:33:12.443Z,9.57
2022-11-29T21:36:58.964Z,8.03
2022-11-29T21:40:40.879Z,13.07
2022-11-29T21:44:23.466Z,9.57
2022-11-29T21:48:25.568Z,9.37
2022-11-29T21:52:07.653Z,9.67
2022-11-29T21:55:56.152Z,8.23
2022-11-29T21:59:37.914Z,8.83
2022-11-29T22:03:19.845Z,9.83
2022-11-29T22:07:01.637Z,8.77
2022-11-29T22:10:43.425Z,8.93
2022-11-29T22:14:25.218Z,9.80
2022-11-29T22:18:07.024Z,8.67
2022-11-29T22:21:54.553Z,8.87
2022-11-29T22:25:36.248Z,9.37
2022-11-29T22:29:18.144Z,10.30
2022-11-29T22:32:59.852Z,10.47
2022-11-29T22:36:41.804Z,10.63
2022-11-29T22:40:23.614Z,9.50
2022-11-29T22:44:06.584Z,8.80
2022-11-29T22:47:48.394Z,9.60
2022-11-29T22:51:35.711Z,10.10
2022-11-29T22:55:17.419Z,10.40
2022-11-29T22:58:59.787Z,10.43
2022-11-29T23:02:41.521Z,10.70
2022-11-29T23:06:28.292Z,12.33
2022-11-29T23:10:10.444Z,11.53
2022-11-29T23:13:52.363Z,9.60
2022-11-29T23:17:34.334Z,10.70
2022-11-29T23:21:17.803Z,11.20
2022-11-29T23:24:59.619Z,11.67
2022-11-29T23:28:41.434Z,11.60
2022-11-29T23:32:23.174Z,11.13
2022-11-29T23:36:06.925Z,10.60
2022-11-29T23:39:48.686Z,12.63
2022-11-29T23:43:31.819Z,11.23
2022-11-29T23:47:13.502Z,11.37
2022-11-29T23:50:55.211Z,12.63
2022-11-29T23:54:36.942Z,12.23
2022-11-29T23:58:18.725Z,11.53
